Time;durP1;ratioP1;P1;durP2;ratioP2;P2;SDS_P1;SDS_P2;PMS_P1;PMS_P2;Temp;Humidity;BMP_temperature;BMP_pressure;BME280_temperature;BME280_humidity;BME280_pressure;Samples;Min_cycle;Max_cycle;Signal;HPM_P1;HPM_P2
2022/04/09 00:01:55;;;;;;;0.10;0.10;;;;;;;1.91;77.36;97540.56;5140954;28;20052;-71
2022/04/09 00:04:45;;;;;;;0.30;0.20;;;;;;;2.01;77.79;97560.59;5127156;28;20440;-69
2022/04/09 00:07:35;;;;;;;1.88;0.20;;;;;;;1.74;78.01;97555.00;5127514;28;20081;-69
2022/04/09 00:10:26;;;;;;;0.22;0.22;;;;;;;2.32;76.30;97565.94;5141524;28;20062;-69
2022/04/09 00:13:15;;;;;;;2.97;0.30;;;;;;;2.16;76.55;97566.38;5127226;28;20047;-69
2022/04/09 00:16:05;;;;;;;0.57;0.45;;;;;;;2.53;74.97;97579.84;5127053;28;20121;-68
2022/04/09 00:18:56;;;;;;;0.57;0.47;;;;;;;2.49;75.94;97603.78;5141881;28;20072;-70
2022/04/09 00:21:46;;;;;;;0.85;0.60;;;;;;;2.51;75.05;97614.91;5141482;28;20082;-69
2022/04/09 00:24:37;;;;;;;0.40;0.40;;;;;;;2.67;75.71;97648.50;5141790;28;20583;-70
2022/04/09 00:27:27;;;;;;;0.73;0.57;;;;;;;2.24;76.40;97673.78;5141220;28;20055;-69
2022/04/09 00:30:18;;;;;;;3.20;0.70;;;;;;;2.33;76.01;97687.91;5141858;28;20078;-72
2022/04/09 00:33:09;;;;;;;0.60;0.40;;;;;;;1.57;79.11;97697.44;5141953;28;20073;-68
2022/04/09 00:35:59;;;;;;;1.27;0.50;;;;;;;1.79;78.67;97726.16;5141502;28;20061;-68
2022/04/09 00:38:49;;;;;;;0.80;0.55;;;;;;;2.24;77.73;97733.09;5127580;28;20423;-68
2022/04/09 00:41:40;;;;;;;0.30;0.30;;;;;;;2.62;75.65;97730.03;5127285;28;20073;-68
2022/04/09 00:44:31;;;;;;;0.65;0.60;;;;;;;2.74;74.52;97725.56;5127295;28;20520;-69
2022/04/09 00:47:21;;;;;;;2.13;0.63;;;;;;;2.66;74.57;97731.44;5126928;28;20047;-68
2022/04/09 00:50:12;;;;;;;1.20;0.60;;;;;;;3.11;73.45;97746.91;5141593;28;20065;-68
2022/04/09 00:53:03;;;;;;;0.50;0.50;;;;;;;3.13;74.18;97752.84;5141737;28;20054;-70
2022/04/09 00:59:06;;;;;;;0.98;0.60;;;;;;;3.36;73.07;97771.06;5141802;28;20597;-70
2022/04/09 01:01:56;;;;;;;;;;;;;;;3.15;73.00;97777.16;5127134;28;20077;-69
2022/04/09 01:04:48;;;;;;;0.73;0.68;;;;;;;2.94;74.48;97774.47;5141196;28;19929;-72
2022/04/09 01:07:39;;;;;;;1.17;0.52;;;;;;;3.37;71.89;97785.81;5127131;28;20065;-69
2022/04/09 01:10:29;;;;;;;2.22;0.70;;;;;;;3.12;73.35;97785.25;5128119;28;20060;-69
2022/04/09 01:13:20;;;;;;;2.55;0.70;;;;;;;2.97;73.99;97818.75;5130880;28;20568;-69
2022/04/09 01:16:12;;;;;;;1.48;0.90;;;;;;;2.62;74.81;97829.47;5130669;28;20129;-70
2022/04/09 01:19:04;;;;;;;1.58;1.30;;;;;;;3.07;74.17;97834.53;5130663;28;20136;-68
2022/04/09 01:21:59;;;;;;;1.75;1.25;;;;;;;3.34;72.23;97847.16;5130504;28;20520;-69
2022/04/09 01:24:50;;;;;;;1.70;1.27;;;;;;;3.28;71.71;97861.63;5130403;28;20057;-68
2022/04/09 01:27:41;;;;;;;5.07;1.52;;;;;;;3.08;73.29;97867.66;5116431;28;20700;-69
2022/04/09 01:30:31;;;;;;;2.92;1.92;;;;;;;2.69;73.74;97880.34;5129299;28;20592;-70
2022/04/09 01:33:22;;;;;;;2.90;1.85;;;;;;;2.76;73.81;97889.38;5130554;28;20077;-70
2022/04/09 01:36:14;;;;;;;3.33;2.50;;;;;;;2.31;75.83;97899.88;5144918;28;20054;-69
2022/04/09 01:39:05;;;;;;;5.50;3.33;;;;;;;2.67;73.92;97899.75;5144787;28;20059;-68
2022/04/09 01:41:56;;;;;;;4.85;4.05;;;;;;;2.25;76.31;97923.91;5130187;28;20058;-69
2022/04/09 01:44:48;;;;;;;6.22;4.85;;;;;;;2.81;74.33;97926.50;5129975;28;20050;-69
2022/04/09 01:47:42;;;;;;;8.30;5.57;;;;;;;2.77;74.72;97938.16;5130511;28;20701;-69
2022/04/09 01:50:33;;;;;;;8.68;6.00;;;;;;;2.91;74.02;97941.47;5116687;28;20517;-68
2022/04/09 01:53:24;;;;;;;8.40;5.82;;;;;;;2.11;76.11;97953.72;5130039;28;20054;-68
2022/04/09 01:56:15;;;;;;;9.48;6.55;;;;;;;2.21;76.93;97966.94;5144718;28;20051;-68
2022/04/09 01:59:06;;;;;;;10.63;7.25;;;;;;;2.92;74.92;97977.19;5129994;28;20051;-68
2022/04/09 02:01:56;;;;;;;13.55;8.48;;;;;;;2.25;76.11;97993.69;5129519;28;20061;-69
2022/04/09 02:04:47;;;;;;;13.07;8.30;;;;;;;2.11;76.55;97989.50;5129038;28;20097;-68
2022/04/09 02:07:38;;;;;;;15.50;8.85;;;;;;;2.69;74.38;98005.16;5129788;28;20420;-68
2022/04/09 02:10:30;;;;;;;14.50;8.95;;;;;;;2.54;75.36;98017.63;5129489;28;20061;-68
2022/04/09 02:13:22;;;;;;;14.07;7.73;;;;;;;2.30;75.69;98013.31;5129599;28;20149;-68
2022/04/09 02:16:14;;;;;;;17.50;9.07;;;;;;;2.56;74.55;98003.47;5129488;28;20082;-69
2022/04/09 02:19:05;;;;;;;15.00;9.73;;;;;;;2.69;74.88;98019.09;5130477;28;20057;-69
2022/04/09 02:21:56;;;;;;;16.45;9.25;;;;;;;2.85;74.10;98028.34;5144154;28;20124;-68
2022/04/09 02:24:50;;;;;;;17.10;10.38;;;;;;;2.39;75.51;98031.91;5129521;28;20692;-68
2022/04/09 02:27:40;;;;;;;19.42;10.32;;;;;;;1.95;77.57;98043.88;5144038;28;20165;-68
2022/04/09 02:30:30;;;;;;;16.92;10.40;;;;;;;2.56;75.93;98047.97;5128935;28;20468;-68
2022/04/09 02:33:25;;;;;;;16.92;9.65;;;;;;;1.69;79.23;98054.47;5129628;28;20102;-68
2022/04/09 02:36:16;;;;;;;18.38;10.77;;;;;;;1.73;78.80;98083.84;5129178;28;20152;-69
2022/04/09 02:39:07;;;;;;;16.85;10.25;;;;;;;1.58;79.56;98093.59;5129290;28;20054;-69
2022/04/09 02:41:57;;;;;;;18.92;10.65;;;;;;;2.07;77.64;98090.03;5128692;28;20078;-68
2022/04/09 02:44:48;;;;;;;18.38;10.77;;;;;;;2.03;77.95;98089.44;5132977;28;20061;-68
2022/04/09 02:47:39;;;;;;;20.67;11.57;;;;;;;2.00;77.68;98107.97;5148851;28;20124;-68
2022/04/09 02:50:35;;;;;;;20.88;11.85;;;;;;;1.85;78.66;98119.50;5129211;28;20175;-68
2022/04/09 02:53:25;;;;;;;16.90;10.32;;;;;;;1.90;78.45;98127.03;5143606;28;20050;-69
2022/04/09 02:56:18;;;;;;;18.30;10.32;;;;;;;2.17;76.90;98130.25;5128832;28;20061;-69
2022/04/09 02:59:09;;;;;;;18.58;10.07;;;;;;;1.80;79.64;98151.22;5129163;28;20062;-68
2022/04/09 03:02:00;;;;;;;16.05;9.77;;;;;;;2.23;77.19;98148.13;5129932;28;20057;-68
2022/04/09 03:04:55;;;;;;;16.95;9.82;;;;;;;1.70;79.63;98165.06;5129244;28;20105;-68
2022/04/09 03:07:45;;;;;;;16.58;10.15;;;;;;;2.14;78.72;98171.50;5136169;28;20165;-68
2022/04/09 03:10:35;;;;;;;15.07;9.52;;;;;;;1.67;80.38;98181.78;5148833;28;20130;-68
2022/04/09 03:13:25;;;;;;;18.27;10.13;;;;;;;1.69;79.78;98194.72;5163066;28;20404;-68
2022/04/09 03:16:15;;;;;;;15.80;9.18;;;;;;;2.00;78.91;98199.47;5163264;28;20054;-68
2022/04/09 03:19:07;;;;;;;16.17;9.82;;;;;;;2.61;77.88;98199.41;5130710;28;20058;-69
2022/04/09 03:21:57;;;;;;;13.75;7.95;;;;;;;2.38;77.83;98202.88;5128451;28;20501;-69
2022/04/09 03:24:49;;;;;;;15.48;8.82;;;;;;;2.49;77.31;98219.47;5128318;28;20125;-69
2022/04/09 03:27:39;;;;;;;13.68;8.40;;;;;;;2.35;76.69;98220.47;5128082;28;20066;-69
2022/04/09 03:30:29;;;;;;;15.10;8.07;;;;;;;3.18;75.89;98224.81;5127920;28;20050;-68
2022/04/09 03:33:21;;;;;;;18.25;8.50;;;;;;;2.71;75.39;98223.94;5127704;28;20143;-68
2022/04/09 03:36:18;;;;;;;15.57;9.45;;;;;;;2.96;75.69;98249.16;5127905;28;20122;-68
2022/04/09 03:39:10;;;;;;;14.57;8.85;;;;;;;2.55;75.66;98236.47;5128125;28;20054;-68
2022/04/09 03:42:02;;;;;;;15.60;8.80;;;;;;;2.85;76.12;98251.75;5127622;28;20514;-68
2022/04/09 03:45:10;;;;;;;18.98;8.40;;;;;;;2.32;77.23;98267.78;5128022;28;20082;-68
2022/04/09 03:48:02;;;;;;;15.60;9.18;;;;;;;2.79;75.85;98279.19;5127631;28;20055;-68
2022/04/09 03:50:55;;;;;;;13.55;8.52;;;;;;;3.01;74.55;98272.38;5127995;28;20065;-69
2022/04/09 03:53:45;;;;;;;13.02;7.97;;;;;;;3.34;73.61;98289.97;5127434;28;20073;-69
2022/04/09 03:56:36;;;;;;;14.20;8.35;;;;;;;3.04;74.76;98290.47;5127682;28;20456;-68
2022/04/09 03:59:26;;;;;;;13.73;7.88;;;;;;;2.20;77.53;98304.44;5127970;28;20084;-68
2022/04/09 04:02:17;;;;;;;19.70;9.05;;;;;;;2.77;76.02;98295.97;5127842;28;20054;-68
2022/04/09 04:05:08;;;;;;;16.10;8.50;;;;;;;2.32;77.23;98322.72;5127077;28;20055;-69
2022/04/09 04:07:59;;;;;;;13.05;8.27;;;;;;;2.32;78.16;98317.50;5127778;28;20145;-68
2022/04/09 04:10:49;;;;;;;16.83;8.68;;;;;;;2.54;77.10;98321.19;5127704;28;20160;-68
2022/04/09 04:13:46;;;;;;;17.88;8.93;;;;;;;2.57;76.36;98321.78;5127039;28;20493;-69
2022/04/09 04:16:36;;;;;;;20.42;10.30;;;;;;;1.70;79.52;98319.25;5127320;28;20055;-69
2022/04/09 04:19:27;;;;;;;18.23;9.85;;;;;;;1.92;80.34;98336.88;5127428;28;20485;-69
2022/04/09 04:22:18;;;;;;;18.98;9.63;;;;;;;1.70;79.98;98316.63;5127443;28;20166;-68
2022/04/09 04:25:09;;;;;;;23.85;10.48;;;;;;;2.37;79.21;98345.09;5127303;28;20595;-69
2022/04/09 04:28:02;;;;;;;20.98;10.48;;;;;;;1.99;78.35;98349.44;5127495;28;20066;-68
2022/04/09 04:30:52;;;;;;;21.33;10.60;;;;;;;2.44;76.82;98354.19;5129236;28;20078;-69
2022/04/09 04:33:43;;;;;;;21.23;10.23;;;;;;;2.17;78.97;98344.72;5146742;28;20431;-68
2022/04/09 04:36:33;;;;;;;23.40;11.15;;;;;;;2.60;76.46;98354.78;5127229;28;20077;-69
2022/04/09 04:39:23;;;;;;;21.88;10.85;;;;;;;1.89;78.77;98379.78;5127480;28;20074;-69
2022/04/09 04:42:15;;;;;;;21.13;11.65;;;;;;;2.55;76.64;98372.56;5127184;28;20477;-68
2022/04/09 04:45:06;;;;;;;22.00;11.77;;;;;;;2.24;77.54;98373.91;5129457;28;20177;-69
2022/04/09 04:47:58;;;;;;;25.80;12.32;;;;;;;2.58;76.85;98382.81;5131138;28;20074;-68
2022/04/09 04:50:52;;;;;;;29.65;12.85;;;;;;;2.80;74.79;98392.63;5113697;28;20078;-69
2022/04/09 04:53:42;;;;;;;26.33;12.45;;;;;;;2.87;74.67;98395.63;5130840;28;20058;-69
2022/04/09 04:56:32;;;;;;;26.42;12.00;;;;;;;2.43;77.13;98408.31;5130614;28;20129;-69
2022/04/09 04:59:24;;;;;;;30.02;12.45;;;;;;;2.76;76.48;98414.72;5129549;28;20072;-69
2022/04/09 05:02:15;;;;;;;30.30;13.30;;;;;;;2.63;75.28;98413.91;5130469;28;20137;-68
2022/04/09 05:05:06;;;;;;;26.80;12.68;;;;;;;2.96;74.24;98410.69;5129857;28;20062;-69
2022/04/09 05:07:56;;;;;;;25.67;13.20;;;;;;;3.27;74.57;98417.16;5128198;28;20089;-69
2022/04/09 05:10:48;;;;;;;28.00;13.20;;;;;;;3.07;73.47;98423.81;5111113;28;20077;-69
2022/04/09 05:13:42;;;;;;;27.95;14.15;;;;;;;2.48;76.23;98421.88;5117612;28;20071;-69
2022/04/09 05:16:34;;;;;;;28.25;14.65;;;;;;;3.08;74.29;98433.38;5130204;28;20058;-69
2022/04/09 05:19:28;;;;;;;32.00;15.25;;;;;;;2.89;74.53;98433.03;5130446;28;20054;-68
2022/04/09 05:22:27;;;;;;;31.85;14.95;;;;;;;2.92;73.34;98454.59;5130362;28;20058;-69
2022/04/09 05:25:24;;;;;;;28.08;14.48;;;;;;;3.16;73.44;98474.72;5130335;28;20528;-68
2022/04/09 05:28:17;;;;;;;26.85;14.73;;;;;;;3.33;72.37;98452.56;5138214;28;20278;-69
2022/04/09 05:31:12;;;;;;;30.55;14.73;;;;;;;2.76;74.49;98486.25;5110450;29;20058;-69
2022/04/09 05:34:02;;;;;;;29.50;15.65;;;;;;;3.62;71.79;98495.00;5128665;28;20061;-69
2022/04/09 05:36:55;;;;;;;29.48;15.15;;;;;;;2.77;73.89;98493.16;5130094;28;20055;-69
2022/04/09 05:39:47;;;;;;;29.40;15.85;;;;;;;3.29;72.47;98502.56;5130272;28;20080;-69
2022/04/09 05:42:37;;;;;;;38.92;17.88;;;;;;;3.19;73.24;98504.16;5130359;28;20178;-69
2022/04/09 05:45:28;;;;;;;33.60;17.75;;;;;;;3.00;72.92;98495.94;5129836;28;20081;-69
2022/04/09 05:48:18;;;;;;;40.33;18.30;;;;;;;3.40;72.31;98521.91;5130185;28;20047;-70
2022/04/09 05:51:14;;;;;;;37.53;18.88;;;;;;;3.49;73.04;98523.88;5129742;28;20070;-70
2022/04/09 05:54:08;;;;;;;38.35;19.27;;;;;;;2.84;74.60;98511.88;5110077;29;20058;-70
2022/04/09 05:57:03;;;;;;;40.20;18.98;;;;;;;3.14;74.42;98532.47;5115701;28;20170;-70
2022/04/09 05:59:58;;;;;;;39.25;19.83;;;;;;;3.45;72.64;98540.78;5129789;28;20054;-69
2022/04/09 06:02:49;;;;;;;39.95;21.33;;;;;;;3.80;71.92;98553.94;5116225;28;20047;-70
2022/04/09 06:05:50;;;;;;;40.63;21.20;;;;;;;3.19;73.28;98553.94;5128974;28;20533;-69
2022/04/09 06:08:51;;;;;;;43.00;21.63;;;;;;;2.86;74.28;98553.69;5131094;28;20432;-70
2022/04/09 06:11:48;;;;;;;43.92;20.98;;;;;;;2.73;76.32;98564.16;5137869;28;20173;-70
2022/04/09 06:14:44;;;;;;;46.47;22.08;;;;;;;2.56;75.77;98557.47;5128629;28;20159;-69
2022/04/09 06:17:36;;;;;;;46.33;22.33;;;;;;;3.07;75.20;98573.13;5133665;28;20052;-70
2022/04/09 06:20:26;;;;;;;45.28;22.45;;;;;;;2.61;76.22;98570.22;5115589;28;20061;-71
2022/04/09 06:23:16;;;;;;;36.72;20.30;;;;;;;3.01;75.10;98570.94;5135044;28;20417;-70
2022/04/09 06:26:07;;;;;;;42.75;22.05;;;;;;;3.38;74.32;98589.31;5135271;28;20092;-70
2022/04/09 06:28:59;;;;;;;41.05;21.42;;;;;;;2.67;76.80;98596.00;5142760;28;20058;-70
2022/04/09 06:31:50;;;;;;;44.10;21.92;;;;;;;2.27;77.83;98577.72;5129544;28;20149;-69
2022/04/09 06:34:41;;;;;;;40.78;20.95;;;;;;;2.27;78.14;98578.56;5137103;28;20050;-71
2022/04/09 06:37:39;;;;;;;34.95;20.35;;;;;;;2.50;78.33;98610.22;5139787;28;20124;-70
2022/04/09 06:40:30;;;;;;;39.63;19.85;;;;;;;2.75;76.96;98618.09;5127825;28;20185;-69
2022/04/09 06:43:21;;;;;;;42.33;21.10;;;;;;;2.80;77.71;98607.31;5128908;28;20062;-70
2022/04/09 06:46:19;;;;;;;38.78;21.50;;;;;;;2.97;77.18;98601.75;5128736;28;20055;-73
2022/04/09 06:49:22;;;;;;;37.80;19.65;;;;;;;2.58;77.54;98606.16;5128958;28;20058;-71
2022/04/09 06:52:17;;;;;;;41.20;20.85;;;;;;;3.64;74.74;98625.03;5133053;28;20443;-70
2022/04/09 06:55:23;;;;;;;34.78;20.00;;;;;;;2.68;76.10;98609.00;5117852;28;20100;-69
2022/04/09 06:58:13;;;;;;;34.85;19.75;;;;;;;3.76;73.78;98623.28;5136474;28;20153;-70
2022/04/09 07:01:03;;;;;;;34.80;18.40;;;;;;;3.72;75.05;98630.53;5132477;28;20201;-71
2022/04/09 07:04:00;;;;;;;36.67;18.80;;;;;;;3.42;74.53;98603.91;5143227;28;20093;-71
2022/04/09 07:06:50;;;;;;;34.53;18.45;;;;;;;4.10;73.03;98628.72;5141951;28;20133;-69
2022/04/09 07:09:43;;;;;;;32.10;16.73;;;;;;;3.62;73.83;98632.16;5141173;28;20065;-69
2022/04/09 07:12:33;;;;;;;31.58;17.02;;;;;;;3.59;75.36;98661.19;5140521;28;20053;-70
2022/04/09 07:15:23;;;;;;;34.17;16.58;;;;;;;3.91;72.94;98658.09;5138379;28;20572;-69
2022/04/09 07:18:13;;;;;;;28.20;16.10;;;;;;;4.58;71.58;98671.53;5125804;28;20532;-69
2022/04/09 07:21:03;;;;;;;28.30;15.75;;;;;;;3.82;72.83;98648.25;5128073;28;20061;-69
2022/04/09 07:23:53;;;;;;;29.05;15.07;;;;;;;4.78;71.51;98683.16;5142898;28;20137;-69
2022/04/09 07:26:44;;;;;;;26.67;14.85;;;;;;;5.39;69.45;98682.91;5133411;28;20256;-69
2022/04/09 07:29:34;;;;;;;33.83;15.35;;;;;;;5.69;68.08;98697.25;5131081;28;20505;-70
2022/04/09 07:32:24;;;;;;;23.90;12.07;;;;;;;5.80;65.55;98694.63;5146304;28;20469;-70
2022/04/09 07:35:15;;;;;;;27.23;13.32;;;;;;;7.43;63.08;98698.78;5153966;28;20053;-69
2022/04/09 07:38:07;;;;;;;22.67;12.80;;;;;;;6.98;63.33;98691.16;5141880;28;20085;-69
2022/04/09 07:40:58;;;;;;;19.85;11.07;;;;;;;6.23;65.96;98707.88;5137814;28;20133;-70
2022/04/09 07:43:47;;;;;;;23.40;12.52;;;;;;;5.74;68.13;98717.00;5141912;28;20057;-69
2022/04/09 07:46:37;;;;;;;20.50;11.80;;;;;;;6.03;66.04;98696.31;5128437;28;20513;-69
2022/04/09 07:49:27;;;;;;;21.05;12.25;;;;;;;6.85;64.00;98711.59;5129265;28;20053;-69
2022/04/09 07:52:18;;;;;;;18.90;10.88;;;;;;;6.77;63.81;98733.31;5140896;28;20051;-69
2022/04/09 07:55:09;;;;;;;19.58;10.88;;;;;;;6.37;64.96;98729.63;5146274;28;20057;-72
2022/04/09 07:58:01;;;;;;;20.63;11.98;;;;;;;6.21;66.84;98748.44;5141718;28;20803;-71
2022/04/09 08:00:55;;;;;;;20.80;11.23;;;;;;;6.45;65.79;98753.53;5134120;28;20050;-70
2022/04/09 08:03:46;;;;;;;21.10;10.10;;;;;;;5.85;66.63;98755.63;5125783;28;20146;-70
2022/04/09 08:06:36;;;;;;;23.80;12.10;;;;;;;6.51;65.65;98756.50;5125990;28;20553;-70
2022/04/09 08:09:26;;;;;;;23.02;11.43;;;;;;;6.18;66.09;98767.94;5141092;28;20133;-70
2022/04/09 08:12:17;;;;;;;16.23;9.20;;;;;;;5.62;65.67;98771.38;5141920;28;20055;-71
2022/04/09 08:15:08;;;;;;;19.13;9.85;;;;;;;6.00;65.72;98764.16;5127728;28;20118;-70
2022/04/09 08:18:04;;;;;;;21.23;10.20;;;;;;;6.03;67.14;98762.13;5127552;28;20054;-69
2022/04/09 08:21:16;;;;;;;19.02;9.90;;;;;;;6.40;64.41;98774.16;5142217;28;20148;-69
2022/04/09 08:24:06;;;;;;;21.00;9.57;;;;;;;7.66;62.82;98768.06;5125932;28;20045;-69
2022/04/09 08:26:56;;;;;;;18.27;9.80;;;;;;;8.99;59.76;98778.47;5141443;28;20070;-68
2022/04/09 08:29:47;;;;;;;20.55;10.20;;;;;;;9.18;57.71;98789.88;5127195;28;20051;-69
2022/04/09 08:32:37;;;;;;;18.20;8.82;;;;;;;10.23;57.25;98777.47;5141530;28;20062;-69
2022/04/09 08:35:27;;;;;;;18.88;8.27;;;;;;;10.19;55.71;98765.50;5141536;28;20082;-69
2022/04/09 08:38:17;;;;;;;22.08;8.23;;;;;;;9.87;58.37;98785.31;5126763;28;20054;-69
2022/04/09 08:41:08;;;;;;;16.15;7.80;;;;;;;8.63;60.32;98786.09;5140967;28;20498;-69
2022/04/09 08:43:58;;;;;;;16.17;7.63;;;;;;;8.96;58.21;98795.44;5126705;28;20201;-69
2022/04/09 08:46:48;;;;;;;21.60;8.68;;;;;;;8.28;60.87;98791.78;5141440;28;20086;-69
2022/04/09 08:49:46;;;;;;;14.35;7.03;;;;;;;8.82;59.13;98795.84;5141255;28;20439;-69
2022/04/09 08:52:41;;;;;;;20.48;7.88;;;;;;;8.29;59.20;98801.41;5126454;28;20051;-69
2022/04/09 08:55:33;;;;;;;21.52;8.38;;;;;;;8.29;60.69;98786.38;5140544;28;20182;-69
2022/04/09 08:58:23;;;;;;;16.33;7.53;;;;;;;8.85;57.08;98796.41;5141617;28;20059;-69
2022/04/09 09:01:14;;;;;;;17.15;7.63;;;;;;;8.47;59.27;98794.53;5141168;28;20059;-69
2022/04/09 09:04:04;;;;;;;12.35;6.35;;;;;;;8.82;58.71;98790.56;5141347;28;20145;-69
2022/04/09 09:06:55;;;;;;;16.35;6.80;;;;;;;8.97;58.45;98789.16;5126058;28;20061;-69
2022/04/09 09:09:45;;;;;;;14.80;6.47;;;;;;;10.17;56.65;98794.81;5141224;28;20057;-69
2022/04/09 09:12:35;;;;;;;16.85;6.32;;;;;;;8.84;59.17;98807.09;5140792;28;20137;-69
2022/04/09 09:15:26;;;;;;;16.02;6.82;;;;;;;10.96;51.97;98796.03;5140786;28;20074;-69
2022/04/09 09:18:24;;;;;;;14.27;6.03;;;;;;;9.59;54.79;98813.50;5141039;28;20093;-69
2022/04/09 09:21:16;;;;;;;13.52;5.78;;;;;;;11.15;53.89;98814.47;5140541;28;20059;-70
2022/04/09 09:24:09;;;;;;;16.05;4.82;;;;;;;10.81;52.77;98806.34;5140780;28;20600;-69
2022/04/09 09:27:00;;;;;;;14.88;5.43;;;;;;;12.64;50.33;98816.09;5140827;28;20123;-70
2022/04/09 09:29:53;;;;;;;10.35;4.63;;;;;;;10.95;50.19;98816.44;5141253;28;20058;-69
2022/04/09 09:32:44;;;;;;;12.35;4.10;;;;;;;10.84;51.51;98818.47;5129976;28;20062;-70
2022/04/09 09:35:48;;;;;;;20.13;4.32;;;;;;;11.37;52.23;98815.00;5144521;28;20045;-70
2022/04/09 09:38:40;;;;;;;14.47;4.67;;;;;;;10.49;53.34;98812.13;5144751;28;20061;-69
2022/04/09 09:41:30;;;;;;;21.20;5.28;;;;;;;10.63;51.44;98838.16;5129360;28;20054;-69
2022/04/09 09:44:22;;;;;;;11.02;4.60;;;;;;;10.20;54.39;98826.31;5129729;28;20113;-69
2022/04/09 09:47:13;;;;;;;14.32;4.80;;;;;;;10.34;53.22;98825.03;5144534;28;20061;-70
2022/04/09 09:50:03;;;;;;;15.60;4.60;;;;;;;10.18;53.20;98830.91;5144573;28;20721;-69
2022/04/09 09:53:04;;;;;;;18.08;4.53;;;;;;;8.75;56.37;98829.94;5145000;28;20636;-69
2022/04/09 09:55:55;;;;;;;18.02;4.95;;;;;;;9.85;55.39;98825.16;5144026;28;20545;-69
2022/04/09 09:58:45;;;;;;;15.75;5.32;;;;;;;8.31;56.03;98821.44;5144935;28;20055;-69
2022/04/09 10:01:44;;;;;;;16.27;4.28;;;;;;;10.51;52.70;98821.59;5144450;28;20051;-69
2022/04/09 10:04:35;;;;;;;13.18;5.25;;;;;;;10.44;54.72;98830.28;5144113;28;20046;-69
2022/04/09 10:07:25;;;;;;;13.30;4.68;;;;;;;10.64;53.50;98813.28;5129825;28;20062;-69
2022/04/09 10:10:16;;;;;;;13.57;4.50;;;;;;;11.28;51.21;98830.84;5144063;28;20776;-69
2022/04/09 10:13:07;;;;;;;10.57;3.85;;;;;;;9.85;53.46;98833.09;5144964;28;20050;-69
2022/04/09 10:15:58;;;;;;;14.73;4.10;;;;;;;9.83;53.69;98845.66;5144560;28;20094;-69
2022/04/09 10:18:49;;;;;;;11.02;4.05;;;;;;;9.47;54.10;98847.25;5144642;28;20425;-69
2022/04/09 10:21:41;;;;;;;13.85;5.22;;;;;;;10.42;50.97;98837.53;5124288;29;20422;-69
2022/04/09 10:24:32;;;;;;;13.15;4.13;;;;;;;10.10;52.71;98828.16;5124436;29;20049;-69
2022/04/09 10:27:44;;;;;;;15.85;4.55;;;;;;;9.95;55.00;98856.09;5124274;28;20114;-69
2022/04/09 10:30:39;;;;;;;13.30;4.22;;;;;;;8.98;54.44;98846.41;5124220;28;20051;-69
2022/04/09 10:33:34;;;;;;;10.93;4.63;;;;;;;9.05;56.80;98809.66;5109976;28;20062;-70
2022/04/09 10:36:42;;;;;;;;;;;;;;;8.33;54.07;98848.53;5144453;28;20054;-69
2022/04/09 10:39:45;;;;;;;10.40;4.30;;;;;;;9.73;51.84;98842.19;5144194;28;20402;-69
2022/04/09 10:42:48;;;;;;;15.70;4.43;;;;;;;10.11;52.64;98819.22;5143595;28;20072;-69
2022/04/09 10:46:11;;;;;;;10.95;3.80;;;;;;;10.84;50.00;98847.66;5129266;28;20051;-69
2022/04/09 10:49:15;;;;;;;17.48;4.20;;;;;;;10.17;50.96;98845.16;5143857;28;20054;-70
2022/04/09 10:52:14;;;;;;;13.93;3.65;;;;;;;11.32;53.07;98841.97;5129378;28;20197;-69
2022/04/09 10:55:20;;;;;;;13.20;4.53;;;;;;;10.91;52.84;98833.63;5128657;28;20094;-69
2022/04/09 10:58:10;;;;;;;17.05;4.70;;;;;;;11.50;51.08;98839.34;5129128;28;20161;-69
2022/04/09 11:01:00;;;;;;;13.85;4.05;;;;;;;10.54;51.71;98831.91;5129007;28;20051;-69
2022/04/09 11:03:51;;;;;;;14.10;5.03;;;;;;;9.58;52.57;98822.44;5143196;28;20055;-69
2022/04/09 11:06:43;;;;;;;12.52;4.38;;;;;;;9.37;52.50;98834.03;5142721;28;20832;-69
2022/04/09 11:09:52;;;;;;;10.07;3.92;;;;;;;9.96;52.86;98836.56;5143270;28;20091;-69
2022/04/09 11:12:43;;;;;;;8.27;3.67;;;;;;;8.62;52.44;98819.59;5143265;28;20522;-70
2022/04/09 11:15:34;;;;;;;10.48;3.78;;;;;;;8.78;52.80;98842.06;5143216;28;20050;-70
2022/04/09 11:18:24;;;;;;;14.40;3.95;;;;;;;9.24;52.72;98820.25;5143194;28;20061;-70
2022/04/09 11:21:14;;;;;;;12.45;4.70;;;;;;;9.56;53.79;98830.50;5143302;28;20057;-70
2022/04/09 11:24:08;;;;;;;11.07;4.82;;;;;;;10.26;53.16;98840.81;5143120;28;20050;-70
2022/04/09 11:26:58;;;;;;;12.40;3.95;;;;;;;10.40;51.09;98828.88;5142976;28;20062;-70
2022/04/09 11:29:48;;;;;;;11.05;4.03;;;;;;;10.20;54.66;98839.56;5143385;28;20077;-70
2022/04/09 11:32:39;;;;;;;11.27;4.07;;;;;;;11.22;50.57;98826.13;5143095;28;20062;-70
2022/04/09 11:35:33;;;;;;;13.70;4.07;;;;;;;9.37;52.76;98836.66;5127803;28;20058;-70
2022/04/09 11:38:25;;;;;;;8.85;3.45;;;;;;;8.74;52.62;98828.28;5143097;28;20129;-70
2022/04/09 11:41:22;;;;;;;16.13;4.20;;;;;;;9.25;51.93;98827.19;5142316;28;20437;-70
2022/04/09 11:44:26;;;;;;;13.27;3.97;;;;;;;9.61;52.47;98822.16;5142572;28;20058;-70
2022/04/09 11:47:25;;;;;;;11.88;4.00;;;;;;;9.96;51.98;98820.66;5127941;28;20145;-70
2022/04/09 11:50:17;;;;;;;12.20;3.60;;;;;;;9.10;52.06;98828.56;5142310;28;20050;-70
2022/04/09 11:53:15;;;;;;;21.38;4.53;;;;;;;8.53;55.21;98809.84;5128242;28;20524;-70
2022/04/09 11:56:06;;;;;;;8.60;4.00;;;;;;;9.83;53.07;98826.28;5142026;28;20544;-70
2022/04/09 11:58:57;;;;;;;18.75;4.20;;;;;;;8.46;53.25;98820.13;5142564;28;20505;-69
2022/04/09 12:01:47;;;;;;;13.13;3.90;;;;;;;9.72;53.35;98816.69;5127539;28;20121;-70
2022/04/09 12:04:37;;;;;;;14.05;3.53;;;;;;;9.74;51.55;98824.50;5142029;28;20676;-70
2022/04/09 12:07:28;;;;;;;12.18;3.13;;;;;;;9.51;52.17;98803.63;5142253;28;20059;-70
2022/04/09 12:10:28;;;;;;;10.98;3.67;;;;;;;9.34;50.08;98815.78;5142109;28;20156;-70
2022/04/09 12:13:39;;;;;;;7.15;2.90;;;;;;;9.31;53.14;98809.94;5142548;28;20066;-70
2022/04/09 12:16:37;;;;;;;10.82;3.83;;;;;;;9.35;50.33;98817.44;5141940;28;20091;-70
2022/04/09 12:19:29;;;;;;;11.00;2.95;;;;;;;9.66;50.39;98811.97;5127539;28;20086;-70
2022/04/09 12:22:24;;;;;;;10.77;3.17;;;;;;;9.58;51.80;98812.69;5141999;28;20059;-70
2022/04/09 12:25:14;;;;;;;9.93;3.15;;;;;;;8.67;52.09;98812.09;5142304;28;20128;-70
2022/04/09 12:28:17;;;;;;;6.57;2.92;;;;;;;9.13;52.04;98817.72;5141943;28;20129;-70
2022/04/09 12:31:23;;;;;;;8.93;2.90;;;;;;;10.21;49.37;98795.34;5141778;28;20521;-70
2022/04/09 12:34:14;;;;;;;12.38;3.35;;;;;;;9.88;47.65;98816.94;5127338;28;20093;-70
2022/04/09 12:37:05;;;;;;;14.15;3.13;;;;;;;10.12;47.82;98820.91;5127690;28;20054;-70
2022/04/09 12:40:32;;;;;;;8.88;3.45;;;;;;;9.46;50.54;98829.69;5142619;28;20426;-70
2022/04/09 12:43:36;;;;;;;10.10;2.92;;;;;;;9.95;49.20;98808.41;5081084;29;20095;-70
2022/04/09 12:46:26;;;;;;;12.15;2.85;;;;;;;9.62;47.08;98823.81;5141788;28;20082;-70
2022/04/09 12:49:17;;;;;;;9.20;2.47;;;;;;;9.38;49.38;98827.75;5142171;28;20058;-70
2022/04/09 12:52:09;;;;;;;15.35;3.08;;;;;;;9.25;50.40;98829.00;5141589;28;20061;-70
2022/04/09 12:55:00;;;;;;;11.80;2.50;;;;;;;9.75;49.40;98818.22;5126410;28;20130;-70
2022/04/09 12:57:50;;;;;;;13.68;2.90;;;;;;;10.35;51.00;98816.09;5141508;28;20065;-70
2022/04/09 13:00:40;;;;;;;11.63;2.63;;;;;;;9.95;48.83;98819.00;5141758;28;20053;-70
2022/04/09 13:03:30;;;;;;;7.97;2.92;;;;;;;10.32;47.83;98814.56;5141600;28;20058;-70
2022/04/09 13:06:20;;;;;;;12.48;2.13;;;;;;;9.65;45.18;98819.06;5144022;28;20058;-70
2022/04/09 13:09:10;;;;;;;9.75;2.33;;;;;;;9.47;48.64;98811.97;5145924;28;20520;-70
2022/04/09 13:12:01;;;;;;;10.82;2.05;;;;;;;9.42;47.13;98804.47;5145368;28;20421;-70
2022/04/09 13:14:51;;;;;;;9.45;2.45;;;;;;;9.26;48.76;98810.34;5130700;28;20489;-70
2022/04/09 13:17:41;;;;;;;10.20;2.80;;;;;;;9.43;48.23;98786.78;5145386;28;20058;-70
2022/04/09 13:20:31;;;;;;;7.18;2.70;;;;;;;9.96;47.90;98799.47;5144875;28;20053;-70
2022/04/09 13:23:21;;;;;;;12.23;2.45;;;;;;;10.35;47.96;98787.75;5145569;28;20110;-70
2022/04/09 13:26:12;;;;;;;12.65;2.20;;;;;;;10.20;45.93;98775.97;5145342;28;20198;-69
2022/04/09 13:29:01;;;;;;;8.85;2.60;;;;;;;10.23;45.49;98754.47;5145345;28;20161;-69
2022/04/09 13:31:52;;;;;;;9.07;2.30;;;;;;;9.49;47.53;98787.06;5130335;28;20285;-69
2022/04/09 13:34:42;;;;;;;10.00;2.33;;;;;;;10.21;47.56;98776.81;5144837;28;20536;-69